createdAt,value
2023-11-21T00:00:14.881Z,17.42
2023-11-21T00:00:36.761Z,17.47
2023-11-21T00:01:02.262Z,17.48
2023-11-21T00:01:24.935Z,17.48
2023-11-21T00:01:46.651Z,17.47
2023-11-21T00:02:08.533Z,17.48
2023-11-21T00:02:31.493Z,17.49
2023-11-21T00:02:53.260Z,17.49
2023-11-21T00:03:16.061Z,17.49
2023-11-21T00:03:38.751Z,17.48
2023-11-21T00:04:01.299Z,17.49
2023-11-21T00:04:24.315Z,17.50
2023-11-21T00:04:46.722Z,17.52
2023-11-21T00:05:09.209Z,17.48
2023-11-21T00:05:31.056Z,17.50
2023-11-21T00:05:54.037Z,17.49
2023-11-21T00:06:15.726Z,17.50
2023-11-21T00:06:37.371Z,17.48
2023-11-21T00:06:59.022Z,17.49
2023-11-21T00:07:22.419Z,17.51
2023-11-21T00:07:45.759Z,17.51
2023-11-21T00:08:07.462Z,17.51
2023-11-21T00:08:29.312Z,17.51
2023-11-21T00:08:50.984Z,17.52
2023-11-21T00:09:13.962Z,17.50
2023-11-21T00:09:37.629Z,17.50
2023-11-21T00:09:59.225Z,17.49
2023-11-21T00:10:20.873Z,17.48
2023-11-21T00:10:44.092Z,17.46
2023-11-21T00:11:06.529Z,17.47
2023-11-21T00:11:29.163Z,17.47
2023-11-21T00:11:50.761Z,17.46
2023-11-21T00:12:12.520Z,17.46
2023-11-21T00:12:34.488Z,17.47
2023-11-21T00:12:56.329Z,17.46
2023-11-21T00:13:18.942Z,17.46
2023-11-21T00:13:41.619Z,17.48
2023-11-21T00:14:04.026Z,17.46
2023-11-21T00:14:25.746Z,17.46
2023-11-21T00:14:47.350Z,17.45
2023-11-21T00:15:10.761Z,17.45
2023-11-21T00:15:32.570Z,17.44
2023-11-21T00:15:57.681Z,17.44
2023-11-21T00:16:19.513Z,17.44
2023-11-21T00:16:41.298Z,17.44
2023-11-21T00:17:03.124Z,17.44
2023-11-21T00:17:25.440Z,17.44
2023-11-21T00:17:48.230Z,17.46
2023-11-21T00:18:09.936Z,17.46
2023-11-21T00:18:31.755Z,17.46
2023-11-21T00:18:53.353Z,17.49
2023-11-21T00:19:15.190Z,17.49
2023-11-21T00:19:39.102Z,17.50
2023-11-21T00:20:00.975Z,17.52
2023-11-21T00:20:23.564Z,17.52
2023-11-21T00:20:45.168Z,17.54
2023-11-21T00:21:07.427Z,17.54
2023-11-21T00:21:29.114Z,17.55
2023-11-21T00:21:51.509Z,17.54
2023-11-21T00:22:14.097Z,17.50
2023-11-21T00:22:35.897Z,17.54
2023-11-21T00:22:57.550Z,17.54
2023-11-21T00:23:19.203Z,17.50
2023-11-21T00:23:41.347Z,17.52
2023-11-21T00:24:03.363Z,17.45
2023-11-21T00:24:25.925Z,17.53
2023-11-21T00:24:47.743Z,17.54
2023-11-21T00:25:10.180Z,17.52
2023-11-21T00:25:32.457Z,17.51
2023-11-21T00:25:54.178Z,17.53
2023-11-21T00:26:16.836Z,17.52
2023-11-21T00:26:43.034Z,17.54
2023-11-21T00:27:04.848Z,17.54
2023-11-21T00:27:30.029Z,17.53
2023-11-21T00:27:56.702Z,17.51
2023-11-21T00:28:26.770Z,17.57
2023-11-21T00:28:51.449Z,17.56
2023-11-21T00:29:13.672Z,17.57
2023-11-21T00:29:50.631Z,17.41
2023-11-21T00:30:15.409Z,17.50
2023-11-21T00:30:40.310Z,17.48
2023-11-21T00:31:09.848Z,17.52
2023-11-21T00:31:33.105Z,17.52
2023-11-21T00:33:09.578Z,17.50
2023-11-21T00:33:36.974Z,17.48
2023-11-21T00:33:58.913Z,17.49
2023-11-21T00:34:24.723Z,17.49
2023-11-21T00:34:49.167Z,17.49
2023-11-21T00:35:14.945Z,17.47
2023-11-21T00:35:46.582Z,17.41
2023-11-21T00:37:17.938Z,17.44
2023-11-21T00:38:02.308Z,17.41
2023-11-21T00:38:32.638Z,17.41
2023-11-21T00:39:05.423Z,17.43
2023-11-21T00:39:34.223Z,17.40
2023-11-21T00:40:07.302Z,17.34
2023-11-21T00:40:32.852Z,17.39
2023-11-21T00:40:59.496Z,17.37
2023-11-21T00:42:31.176Z,17.35
2023-11-21T00:43:06.463Z,17.39
2023-11-21T00:44:11.531Z,17.37
2023-11-21T00:44:53.223Z,17.37
2023-11-21T00:45:16.786Z,17.36
2023-11-21T00:45:53.786Z,17.35
2023-11-21T00:46:20.612Z,17.38
2023-11-21T00:46:48.819Z,17.40
2023-11-21T00:47:20.195Z,17.40
2023-11-21T00:47:48.229Z,17.41
2023-11-21T00:48:11.587Z,17.40
2023-11-21T00:48:37.621Z,17.38
2023-11-21T00:49:02.700Z,17.38
2023-11-21T00:49:45.305Z,17.37
2023-11-21T00:50:11.675Z,17.36
2023-11-21T00:50:34.314Z,17.38
2023-11-21T00:50:57.260Z,17.37
2023-11-21T00:51:18.955Z,17.37
2023-11-21T00:51:40.620Z,17.40
2023-11-21T00:52:03.810Z,17.39
2023-11-21T00:52:25.498Z,17.37
2023-11-21T00:52:48.381Z,17.36
2023-11-21T00:53:10.021Z,17.37
2023-11-21T00:53:31.669Z,17.37
2023-11-21T00:53:53.335Z,17.37
2023-11-21T00:54:14.915Z,17.36
2023-11-21T00:54:36.959Z,17.39
2023-11-21T00:55:01.065Z,17.38
2023-11-21T00:55:22.958Z,17.38
2023-11-21T00:55:44.633Z,17.38
2023-11-21T00:56:07.895Z,17.37
2023-11-21T00:56:29.682Z,17.40
2023-11-21T00:56:52.271Z,17.39
2023-11-21T00:57:13.882Z,17.38
2023-11-21T00:57:35.982Z,17.41
2023-11-21T00:57:57.628Z,17.42
2023-11-21T00:58:20.173Z,17.39
2023-11-21T00:58:44.677Z,17.41
2023-11-21T00:59:06.372Z,17.42
2023-11-21T00:59:28.061Z,17.41
2023-11-21T00:59:49.643Z,17.40
2023-11-21T01:00:15.271Z,17.40
2023-11-21T01:00:40.587Z,17.38
2023-11-21T01:01:02.282Z,17.40
2023-11-21T01:01:24.278Z,17.40
2023-11-21T01:01:46.082Z,17.32
2023-11-21T01:02:11.130Z,17.39
2023-11-21T01:02:33.790Z,17.39
2023-11-21T01:02:55.928Z,17.39
2023-11-21T01:03:17.856Z,17.42
2023-11-21T01:03:39.578Z,17.39
2023-11-21T01:04:01.312Z,17.43
2023-11-21T01:04:22.978Z,17.42
2023-11-21T01:04:45.674Z,17.47
2023-11-21T01:05:09.193Z,17.44
2023-11-21T01:05:30.842Z,17.48
2023-11-21T01:05:52.480Z,17.49
2023-11-21T01:06:15.991Z,17.48
2023-11-21T01:06:37.928Z,17.48
2023-11-21T01:07:00.503Z,17.48
2023-11-21T01:07:22.240Z,17.45
2023-11-21T01:07:44.171Z,17.44
2023-11-21T01:08:06.719Z,17.43
2023-11-21T01:08:30.691Z,17.43
2023-11-21T01:08:53.523Z,17.42
2023-11-21T01:09:17.471Z,17.40
2023-11-21T01:09:39.075Z,17.40
2023-11-21T01:10:00.743Z,17.39
2023-11-21T01:10:22.414Z,17.37
2023-11-21T01:10:45.191Z,17.38
2023-11-21T01:11:12.430Z,17.36
2023-11-21T01:12:09.522Z,17.38
2023-11-21T01:12:47.157Z,17.34
2023-11-21T01:13:37.704Z,17.31
2023-11-21T01:14:00.986Z,17.37
2023-11-21T01:14:27.913Z,17.36
2023-11-21T01:14:50.666Z,17.33
2023-11-21T01:15:13.802Z,17.32
2023-11-21T01:15:35.822Z,17.31
2023-11-21T01:16:02.180Z,17.30
2023-11-21T01:16:25.527Z,17.27
2023-11-21T01:16:47.643Z,17.27
2023-11-21T01:17:10.650Z,17.25
2023-11-21T01:17:36.413Z,17.26
2023-11-21T01:18:06.298Z,17.25
2023-11-21T01:19:16.068Z,17.26
2023-11-21T01:19:48.343Z,17.24
2023-11-21T01:20:41.078Z,16.91
2023-11-21T01:21:05.719Z,17.22
2023-11-21T01:21:29.831Z,17.21
2023-11-21T01:21:59.204Z,17.19
2023-11-21T01:22:27.116Z,17.18
2023-11-21T01:22:50.401Z,17.17
2023-11-21T01:23:31.653Z,17.12
2023-11-21T01:24:01.328Z,17.15
2023-11-21T01:24:23.000Z,17.18
2023-11-21T01:24:54.581Z,17.16
2023-11-21T01:25:18.652Z,17.19
2023-11-21T01:26:35.283Z,17.18
2023-11-21T01:26:57.392Z,17.18
2023-11-21T01:27:19.602Z,17.20
2023-11-21T01:27:41.215Z,17.17
2023-11-21T01:28:03.025Z,17.18
2023-11-21T01:28:25.720Z,17.18
2023-11-21T01:28:50.000Z,17.18
2023-11-21T01:29:11.647Z,17.18
2023-11-21T01:29:33.412Z,17.19
2023-11-21T01:29:55.097Z,17.20
2023-11-21T01:30:18.493Z,17.19
2023-11-21T01:30:40.278Z,17.20
2023-11-21T01:31:01.942Z,17.22
2023-11-21T01:31:23.767Z,17.19
2023-11-21T01:31:45.636Z,17.20
2023-11-21T01:32:09.134Z,17.20
2023-11-21T01:32:32.001Z,17.21
2023-11-21T01:32:53.768Z,17.22
2023-11-21T01:33:16.715Z,17.23
2023-11-21T01:33:38.450Z,17.21
2023-11-21T01:34:00.078Z,17.14
2023-11-21T01:34:22.769Z,17.17
2023-11-21T01:34:44.868Z,17.19
2023-11-21T01:35:07.490Z,17.20
2023-11-21T01:35:29.111Z,17.20
2023-11-21T01:35:54.061Z,17.22
2023-11-21T01:36:16.637Z,17.24
2023-11-21T01:36:39.596Z,17.23
2023-11-21T01:37:02.557Z,17.25
2023-11-21T01:37:24.276Z,17.26
2023-11-21T01:37:45.897Z,17.27
2023-11-21T01:38:09.283Z,17.27
2023-11-21T01:38:30.960Z,17.26
2023-11-21T01:38:52.538Z,17.26
2023-11-21T01:39:16.957Z,17.24
2023-11-21T01:39:40.053Z,17.25
2023-11-21T01:40:06.078Z,17.25
2023-11-21T01:40:27.832Z,17.26
2023-11-21T01:40:50.154Z,17.27
2023-11-21T01:41:12.328Z,17.27
2023-11-21T01:41:33.990Z,17.28
2023-11-21T01:41:56.607Z,17.31
2023-11-21T01:42:19.636Z,17.30
2023-11-21T01:42:41.290Z,17.28
2023-11-21T01:43:04.365Z,17.29
2023-11-21T01:43:26.053Z,17.31
2023-11-21T01:43:48.763Z,17.31
2023-11-21T01:44:11.184Z,17.30
2023-11-21T01:44:32.867Z,17.31
2023-11-21T01:44:55.964Z,17.31
2023-11-21T01:45:17.702Z,17.32
2023-11-21T01:45:40.317Z,17.32
2023-11-21T01:46:01.953Z,17.32
2023-11-21T01:46:24.429Z,17.31
2023-11-21T01:46:46.360Z,17.30
2023-11-21T01:47:10.230Z,17.33
2023-11-21T01:47:32.253Z,17.32
2023-11-21T01:47:57.623Z,17.34
2023-11-21T01:48:19.532Z,17.35
2023-11-21T01:48:41.343Z,17.34
2023-11-21T01:49:03.605Z,17.33
2023-11-21T01:49:25.477Z,17.33
2023-11-21T01:49:49.305Z,17.35
2023-11-21T01:50:15.425Z,17.27
2023-11-21T01:50:37.337Z,17.33
2023-11-21T01:51:00.398Z,17.33
2023-11-21T01:51:23.136Z,17.32
2023-11-21T01:51:48.222Z,17.30
2023-11-21T01:52:12.135Z,17.28
2023-11-21T01:52:35.713Z,17.30
2023-11-21T01:52:58.100Z,17.27
2023-11-21T01:53:21.420Z,17.27
2023-11-21T01:53:47.617Z,17.27
2023-11-21T01:54:17.330Z,17.27
2023-11-21T01:54:40.350Z,17.25
2023-11-21T01:55:04.831Z,17.28
2023-11-21T01:55:29.111Z,17.23
2023-11-21T01:55:51.471Z,17.22
2023-11-21T01:56:13.620Z,17.23
2023-11-21T01:56:36.001Z,17.25
2023-11-21T01:57:00.033Z,17.25
2023-11-21T01:57:23.277Z,17.24
2023-11-21T01:57:44.955Z,17.24
2023-11-21T01:58:08.545Z,17.22
2023-11-21T01:58:33.451Z,17.21
2023-11-21T01:58:56.333Z,17.22
2023-11-21T01:59:21.409Z,17.20
2023-11-21T01:59:45.624Z,17.20
2023-11-21T02:00:16.365Z,17.21
2023-11-21T02:00:39.447Z,17.22
2023-11-21T02:01:02.097Z,17.22
2023-11-21T02:01:24.351Z,17.22
2023-11-21T02:01:47.737Z,17.25
2023-11-21T02:02:10.386Z,17.25
2023-11-21T02:02:33.798Z,17.27
2023-11-21T02:02:56.118Z,17.27
2023-11-21T02:03:19.318Z,17.27
2023-11-21T02:03:41.064Z,17.27
2023-11-21T02:04:04.302Z,17.28
2023-11-21T02:04:26.271Z,17.28
2023-11-21T02:04:47.975Z,17.30
2023-11-21T02:05:10.020Z,17.30
2023-11-21T02:05:32.777Z,17.32
2023-11-21T02:05:54.830Z,17.34
2023-11-21T02:06:18.755Z,17.31
2023-11-21T02:06:41.429Z,17.30
2023-11-21T02:07:06.315Z,17.27
2023-11-21T02:07:28.880Z,17.30
2023-11-21T02:07:50.628Z,17.30
2023-11-21T02:08:12.306Z,17.28
2023-11-21T02:08:34.020Z,17.28
2023-11-21T02:08:55.693Z,17.29
2023-11-21T02:09:18.782Z,17.23
2023-11-21T02:09:43.465Z,17.25
2023-11-21T02:10:06.622Z,17.24
2023-11-21T02:10:28.389Z,17.22
2023-11-21T02:10:50.055Z,17.23
2023-11-21T02:11:13.882Z,17.22
2023-11-21T02:11:36.046Z,17.23
2023-11-21T02:11:59.639Z,17.22
2023-11-21T02:12:22.046Z,17.22
2023-11-21T02:12:43.967Z,17.20
2023-11-21T02:13:07.218Z,17.18
2023-11-21T02:13:29.792Z,17.18
2023-11-21T02:13:51.476Z,17.16
2023-11-21T02:14:14.761Z,17.10
2023-11-21T02:14:36.421Z,17.16
2023-11-21T02:14:58.089Z,17.14
2023-11-21T02:15:22.083Z,17.15
2023-11-21T02:15:44.408Z,17.14
2023-11-21T02:16:07.091Z,17.17
2023-11-21T02:16:32.296Z,17.16
2023-11-21T02:16:55.709Z,17.19
2023-11-21T02:17:19.121Z,17.19
2023-11-21T02:17:40.825Z,17.21
2023-11-21T02:18:04.428Z,17.19
2023-11-21T02:18:26.570Z,17.21
2023-11-21T02:18:50.601Z,17.21
2023-11-21T02:19:18.428Z,17.21
2023-11-21T02:19:40.160Z,17.22
2023-11-21T02:20:01.866Z,17.17
2023-11-21T02:20:26.177Z,17.23
2023-11-21T02:20:48.280Z,17.21
2023-11-21T02:21:11.183Z,17.22
2023-11-21T02:21:34.385Z,17.22
2023-11-21T02:22:00.585Z,17.17
2023-11-21T02:22:23.543Z,17.22
2023-11-21T02:22:50.979Z,17.20
2023-11-21T02:23:13.970Z,17.20
2023-11-21T02:23:35.648Z,17.20
2023-11-21T02:23:58.596Z,17.20
2023-11-21T02:24:21.364Z,17.18
2023-11-21T02:24:43.452Z,17.17
2023-11-21T02:25:05.950Z,17.13
2023-11-21T02:25:29.777Z,17.09
2023-11-21T02:25:51.729Z,17.14
2023-11-21T02:26:13.561Z,17.13
2023-11-21T02:26:36.122Z,17.14
2023-11-21T02:26:58.275Z,17.11
2023-11-21T02:27:22.913Z,17.13
2023-11-21T02:27:49.146Z,17.10
2023-11-21T02:28:13.789Z,17.09
2023-11-21T02:28:35.497Z,17.10
2023-11-21T02:28:59.254Z,17.08
2023-11-21T02:29:23.118Z,17.09
2023-11-21T02:29:45.738Z,17.09
2023-11-21T02:30:13.429Z,17.12
2023-11-21T02:30:35.553Z,17.13
2023-11-21T02:30:58.983Z,17.13
2023-11-21T02:31:21.975Z,17.13
2023-11-21T02:31:49.041Z,17.10
2023-11-21T02:32:11.838Z,17.14
2023-11-21T02:32:33.605Z,17.16
2023-11-21T02:32:55.650Z,17.16
2023-11-21T02:33:18.372Z,17.14
2023-11-21T02:33:40.057Z,17.12
2023-11-21T02:34:02.091Z,17.12
2023-11-21T02:34:24.420Z,17.16
2023-11-21T02:34:46.427Z,17.11
2023-11-21T02:35:09.416Z,17.16
2023-11-21T02:35:32.543Z,17.16
2023-11-21T02:35:56.028Z,17.17
2023-11-21T02:36:17.860Z,17.06
2023-11-21T02:36:39.447Z,17.16
2023-11-21T02:37:02.224Z,17.16
2023-11-21T02:37:23.828Z,17.16
2023-11-21T02:37:45.560Z,17.16
2023-11-21T02:38:08.539Z,17.17
2023-11-21T02:38:30.217Z,17.16
2023-11-21T02:38:51.850Z,17.16
2023-11-21T02:39:14.558Z,17.17
2023-11-21T02:39:36.711Z,17.16
2023-11-21T02:39:58.454Z,17.14
2023-11-21T02:40:21.744Z,17.17
2023-11-21T02:40:44.269Z,17.16
2023-11-21T02:41:06.944Z,17.16
2023-11-21T02:41:28.698Z,17.16
2023-11-21T02:41:50.541Z,17.14
2023-11-21T02:42:12.157Z,17.15
2023-11-21T02:42:33.804Z,17.15
2023-11-21T02:42:55.542Z,17.17
2023-11-21T02:43:18.316Z,17.17
2023-11-21T02:43:40.660Z,17.19
2023-11-21T02:44:02.297Z,17.19
2023-11-21T02:44:23.957Z,17.20
2023-11-21T02:44:46.259Z,17.21
2023-11-21T02:45:09.136Z,17.17
2023-11-21T02:45:31.817Z,17.22
2023-11-21T02:45:53.439Z,17.23
2023-11-21T02:46:15.165Z,17.23
2023-11-21T02:46:37.970Z,17.24
2023-11-21T02:46:59.799Z,17.25
2023-11-21T02:47:22.452Z,17.26
2023-11-21T02:47:44.308Z,17.25
2023-11-21T02:48:07.201Z,17.22
2023-11-21T02:48:28.869Z,17.27
2023-11-21T02:48:52.089Z,17.28
2023-11-21T02:49:14.765Z,17.29
2023-11-21T02:49:36.912Z,17.28
2023-11-21T02:49:58.587Z,17.28
2023-11-21T02:50:21.243Z,17.26
2023-11-21T02:50:44.171Z,17.29
2023-11-21T02:51:06.930Z,17.21
2023-11-21T02:51:29.799Z,17.25
2023-11-21T02:51:51.401Z,17.27
2023-11-21T02:52:13.101Z,17.30
2023-11-21T02:52:34.870Z,17.25
2023-11-21T02:52:58.713Z,17.27
2023-11-21T02:53:22.678Z,17.28
2023-11-21T02:53:44.292Z,17.30
2023-11-21T02:54:07.861Z,17.31
2023-11-21T02:54:30.011Z,17.29
2023-11-21T02:54:52.382Z,17.27
2023-11-21T02:55:14.757Z,17.29
2023-11-21T02:55:37.461Z,17.30
2023-11-21T02:55:59.152Z,17.30
2023-11-21T02:56:21.437Z,17.30
2023-11-21T02:56:43.209Z,17.31
2023-11-21T02:57:05.468Z,17.28
2023-11-21T02:57:27.068Z,17.30
2023-11-21T02:57:49.643Z,17.33
2023-11-21T02:58:11.247Z,17.33
2023-11-21T02:58:32.877Z,17.33
2023-11-21T02:58:56.761Z,17.32
2023-11-21T02:59:20.285Z,17.32
2023-11-21T02:59:41.910Z,17.33
2023-11-21T03:00:08.442Z,17.32
2023-11-21T03:00:30.135Z,17.36
2023-11-21T03:00:52.875Z,17.33
2023-11-21T03:01:14.600Z,17.34
2023-11-21T03:01:37.449Z,17.34
2023-11-21T03:01:59.257Z,17.34
2023-11-21T03:02:21.018Z,17.33
2023-11-21T03:02:43.179Z,17.35
2023-11-21T03:03:05.759Z,17.34
2023-11-21T03:03:28.495Z,17.33
2023-11-21T03:03:52.172Z,17.33
2023-11-21T03:04:18.716Z,17.28
2023-11-21T03:04:40.375Z,17.32
2023-11-21T03:05:02.125Z,17.32
2023-11-21T03:05:23.802Z,17.31
2023-11-21T03:05:46.424Z,17.30
2023-11-21T03:06:10.037Z,17.30
2023-11-21T03:06:31.644Z,17.30
2023-11-21T03:06:53.241Z,17.31
2023-11-21T03:07:14.979Z,17.31
2023-11-21T03:07:38.229Z,17.29
2023-11-21T03:08:00.823Z,17.31
2023-11-21T03:08:23.751Z,17.31
2023-11-21T03:08:45.740Z,17.32
2023-11-21T03:09:07.690Z,17.29
2023-11-21T03:09:29.776Z,17.30
2023-11-21T03:09:51.609Z,17.30
2023-11-21T03:10:14.314Z,17.32
2023-11-21T03:10:36.722Z,17.31
2023-11-21T03:10:58.419Z,17.28
2023-11-21T03:11:20.213Z,17.32
2023-11-21T03:11:41.891Z,17.32
2023-11-21T03:12:04.975Z,17.32
2023-11-21T03:12:26.892Z,17.30
2023-11-21T03:12:48.582Z,17.31
2023-11-21T03:13:10.229Z,17.28
2023-11-21T03:13:31.905Z,17.25
2023-11-21T03:13:53.706Z,17.30
2023-11-21T03:14:15.716Z,17.20
2023-11-21T03:14:38.362Z,17.28
2023-11-21T03:15:00.622Z,17.26
2023-11-21T03:15:22.312Z,17.24
2023-11-21T03:15:43.964Z,17.28
2023-11-21T03:16:07.209Z,17.26
2023-11-21T03:16:30.034Z,17.31
2023-11-21T03:16:51.841Z,17.30
2023-11-21T03:17:13.532Z,17.31
2023-11-21T03:17:35.413Z,17.29
2023-11-21T03:17:58.351Z,17.27
2023-11-21T03:18:20.231Z,17.24
2023-11-21T03:18:42.980Z,17.25
2023-11-21T03:19:04.877Z,17.23
2023-11-21T03:19:26.550Z,17.26
2023-11-21T03:19:49.180Z,17.24
2023-11-21T03:20:12.904Z,17.25
2023-11-21T03:20:35.857Z,17.21
2023-11-21T03:20:58.204Z,17.20
2023-11-21T03:21:21.278Z,17.26
2023-11-21T03:21:42.949Z,17.26
2023-11-21T03:22:05.302Z,17.26
2023-11-21T03:22:27.493Z,17.27
2023-11-21T03:22:49.251Z,17.25
2023-11-21T03:23:11.968Z,17.26
2023-11-21T03:23:34.962Z,17.26
2023-11-21T03:23:57.421Z,17.22
2023-11-21T03:24:20.693Z,17.27
2023-11-21T03:24:42.307Z,17.27
2023-11-21T03:25:05.838Z,17.27
2023-11-21T03:25:28.153Z,17.27
2023-11-21T03:25:50.093Z,17.29
2023-11-21T03:26:13.849Z,17.27
2023-11-21T03:26:35.644Z,17.27
2023-11-21T03:26:58.236Z,17.24
2023-11-21T03:27:20.013Z,17.27
2023-11-21T03:27:41.693Z,17.28
2023-11-21T03:28:04.285Z,17.28
2023-11-21T03:28:26.044Z,17.27
2023-11-21T03:28:48.732Z,17.28
2023-11-21T03:29:10.382Z,17.28
2023-11-21T03:29:32.112Z,17.30
2023-11-21T03:29:55.429Z,17.28
2023-11-21T03:30:17.788Z,17.29
2023-11-21T03:30:40.454Z,17.28
2023-11-21T03:31:02.073Z,17.26
2023-11-21T03:31:23.826Z,17.26
2023-11-21T03:31:45.550Z,17.25
2023-11-21T03:32:08.223Z,17.25
2023-11-21T03:32:34.115Z,17.21
2023-11-21T03:32:55.803Z,17.26
2023-11-21T03:33:18.450Z,17.26
2023-11-21T03:33:40.086Z,17.24
2023-11-21T03:34:01.787Z,17.26
2023-11-21T03:34:27.182Z,17.27
2023-11-21T03:34:57.844Z,17.24
2023-11-21T03:35:22.070Z,17.27
2023-11-21T03:35:45.671Z,17.27
2023-11-21T03:36:09.096Z,17.26
2023-11-21T03:36:31.731Z,17.26
2023-11-21T03:36:53.752Z,17.25
2023-11-21T03:37:15.672Z,17.23
2023-11-21T03:37:39.288Z,17.24
2023-11-21T03:38:00.977Z,17.25
2023-11-21T03:38:24.900Z,17.24
2023-11-21T03:38:50.786Z,17.25
2023-11-21T03:39:12.473Z,17.23
2023-11-21T03:39:34.111Z,17.25
2023-11-21T03:39:56.535Z,17.23
2023-11-21T03:40:18.263Z,17.24
2023-11-21T03:40:40.727Z,17.23
2023-11-21T03:41:03.359Z,17.22
2023-11-21T03:41:25.125Z,17.21
2023-11-21T03:41:46.880Z,17.25
2023-11-21T03:42:08.563Z,17.23
2023-11-21T03:42:30.184Z,17.23
2023-11-21T03:42:53.010Z,17.23
2023-11-21T03:43:16.246Z,17.22
2023-11-21T03:43:38.054Z,17.27
2023-11-21T03:44:00.346Z,17.26
2023-11-21T03:44:23.288Z,17.26
2023-11-21T03:44:45.307Z,17.27
2023-11-21T03:45:09.788Z,17.22
2023-11-21T03:45:31.862Z,17.25
2023-11-21T03:45:53.499Z,17.26
2023-11-21T03:46:15.444Z,17.25
2023-11-21T03:46:38.366Z,17.23
2023-11-21T03:47:00.286Z,17.26
2023-11-21T03:47:23.090Z,17.26
2023-11-21T03:47:45.065Z,17.23
2023-11-21T03:48:06.858Z,17.25
2023-11-21T03:48:28.585Z,17.26
2023-11-21T03:48:50.312Z,17.25
2023-11-21T03:49:12.985Z,17.26
2023-11-21T03:49:35.254Z,17.27
2023-11-21T03:49:57.011Z,17.27
2023-11-21T03:50:18.922Z,17.27
2023-11-21T03:50:41.503Z,17.27
2023-11-21T03:51:03.103Z,17.26
2023-11-21T03:51:24.727Z,17.24
2023-11-21T03:51:46.363Z,17.29
2023-11-21T03:52:08.852Z,17.23
2023-11-21T03:52:31.124Z,17.28
2023-11-21T03:52:55.144Z,17.28
2023-11-21T03:53:18.063Z,17.27
2023-11-21T03:53:39.632Z,17.27
2023-11-21T03:54:06.043Z,17.30
2023-11-21T03:54:27.664Z,17.28
2023-11-21T03:54:49.292Z,17.27
2023-11-21T03:55:11.689Z,17.25
2023-11-21T03:55:37.122Z,17.24
2023-11-21T03:55:59.240Z,17.26
2023-11-21T03:56:22.684Z,17.27
2023-11-21T03:56:44.411Z,17.25
2023-11-21T03:57:06.131Z,17.26
2023-11-21T03:57:28.775Z,17.26
2023-11-21T03:57:52.303Z,17.25
2023-11-21T03:58:15.152Z,17.24
2023-11-21T03:58:36.835Z,17.26
2023-11-21T03:58:58.425Z,17.27
2023-11-21T03:59:20.307Z,17.25
2023-11-21T03:59:43.424Z,17.22
2023-11-21T04:00:09.440Z,17.23
2023-11-21T04:00:33.801Z,17.23
2023-11-21T04:00:55.401Z,17.21
2023-11-21T04:01:22.804Z,17.21
2023-11-21T04:01:45.542Z,17.21
2023-11-21T04:02:08.672Z,17.22
2023-11-21T04:02:30.739Z,17.22
2023-11-21T04:02:53.002Z,17.21
2023-11-21T04:03:14.855Z,17.20
2023-11-21T04:03:37.947Z,17.20
2023-11-21T04:04:00.328Z,17.19
2023-11-21T04:04:22.017Z,17.18
2023-11-21T04:04:43.875Z,17.17
2023-11-21T04:05:08.109Z,17.16
2023-11-21T04:05:29.964Z,17.17
2023-11-21T04:05:52.618Z,17.17
2023-11-21T04:06:14.377Z,17.15
2023-11-21T04:06:36.960Z,17.17
2023-11-21T04:06:58.637Z,17.18
2023-11-21T04:07:20.272Z,17.19
2023-11-21T04:07:42.148Z,17.20
2023-11-21T04:08:05.099Z,17.20
2023-11-21T04:08:27.181Z,17.19
2023-11-21T04:08:48.852Z,17.20
2023-11-21T04:09:11.901Z,17.23
2023-11-21T04:09:33.642Z,17.23
2023-11-21T04:09:55.315Z,17.23
2023-11-21T04:10:18.170Z,17.25
2023-11-21T04:10:40.733Z,17.24
2023-11-21T04:11:02.489Z,17.23
2023-11-21T04:11:24.065Z,17.21
2023-11-21T04:11:46.684Z,17.21
2023-11-21T04:12:10.588Z,17.22
2023-11-21T04:12:32.221Z,17.21
2023-11-21T04:12:53.928Z,17.14
2023-11-21T04:13:15.607Z,17.21
2023-11-21T04:13:37.254Z,17.20
2023-11-21T04:13:59.858Z,17.17
2023-11-21T04:14:21.625Z,17.13
2023-11-21T04:14:43.227Z,17.13
2023-11-21T04:15:05.380Z,17.17
2023-11-21T04:15:27.305Z,17.17
2023-11-21T04:15:48.916Z,17.19
2023-11-21T04:16:11.632Z,17.19
2023-11-21T04:16:33.326Z,17.18
2023-11-21T04:16:55.434Z,17.16
2023-11-21T04:17:19.204Z,17.13
2023-11-21T04:17:41.126Z,17.13
2023-11-21T04:18:04.095Z,17.11
2023-11-21T04:18:25.782Z,17.10
2023-11-21T04:18:47.391Z,17.13
2023-11-21T04:19:11.332Z,17.09
2023-11-21T04:19:33.048Z,17.12
2023-11-21T04:19:54.787Z,17.12
2023-11-21T04:20:17.571Z,17.12
2023-11-21T04:20:39.234Z,17.12
2023-11-21T04:21:00.843Z,17.13
2023-11-21T04:21:22.602Z,17.13
2023-11-21T04:21:44.419Z,17.12
2023-11-21T04:22:07.080Z,17.13
2023-11-21T04:22:28.787Z,17.12
2023-11-21T04:22:50.519Z,17.11
2023-11-21T04:23:14.705Z,17.10
2023-11-21T04:23:36.910Z,17.10
2023-11-21T04:23:59.528Z,17.11
2023-11-21T04:24:22.566Z,17.12
2023-11-21T04:24:44.201Z,17.12
2023-11-21T04:25:06.154Z,17.13
2023-11-21T04:25:29.271Z,17.11
2023-11-21T04:25:51.064Z,17.13
2023-11-21T04:26:13.670Z,17.14
2023-11-21T04:26:35.396Z,17.13
2023-11-21T04:26:57.141Z,17.16
2023-11-21T04:27:19.055Z,17.11
2023-11-21T04:27:41.386Z,17.10
2023-11-21T04:28:04.028Z,17.13
2023-11-21T04:28:26.013Z,17.13
2023-11-21T04:28:47.858Z,17.12
2023-11-21T04:29:09.603Z,17.12
2023-11-21T04:29:31.312Z,17.12
2023-11-21T04:29:53.009Z,17.11
2023-11-21T04:30:16.766Z,17.10
2023-11-21T04:30:40.579Z,17.09
2023-11-21T04:31:02.602Z,17.08
2023-11-21T04:31:24.504Z,17.06
2023-11-21T04:31:47.409Z,17.07
2023-11-21T04:32:10.085Z,17.09
2023-11-21T04:32:31.766Z,17.10
2023-11-21T04:32:53.458Z,17.08
2023-11-21T04:33:15.159Z,17.10
2023-11-21T04:33:37.296Z,17.10
2023-11-21T04:33:59.925Z,17.07
2023-11-21T04:34:21.605Z,17.05
2023-11-21T04:34:43.316Z,17.07
2023-11-21T04:35:05.664Z,17.02
2023-11-21T04:35:27.528Z,17.04
2023-11-21T04:35:49.359Z,17.08
2023-11-21T04:36:12.195Z,17.07
2023-11-21T04:36:35.850Z,17.07
2023-11-21T04:36:57.508Z,17.08
2023-11-21T04:37:19.210Z,17.07
2023-11-21T04:37:41.125Z,17.08
2023-11-21T04:38:02.968Z,17.07
2023-11-21T04:38:25.547Z,17.08
2023-11-21T04:38:47.196Z,17.07
2023-11-21T04:39:08.802Z,17.08
2023-11-21T04:39:32.505Z,17.09
2023-11-21T04:39:54.141Z,17.09
2023-11-21T04:40:15.791Z,17.10
2023-11-21T04:40:37.460Z,17.09
2023-11-21T04:41:02.802Z,17.09
2023-11-21T04:41:25.101Z,17.08
2023-11-21T04:41:46.694Z,17.08
2023-11-21T04:42:08.302Z,17.09
2023-11-21T04:42:30.072Z,17.10
2023-11-21T04:42:52.652Z,17.11
2023-11-21T04:43:14.367Z,17.10
2023-11-21T04:43:36.007Z,17.08
2023-11-21T04:43:57.709Z,17.08
2023-11-21T04:44:19.448Z,17.08
2023-11-21T04:44:42.209Z,17.07
2023-11-21T04:45:08.388Z,17.05
2023-11-21T04:45:29.978Z,17.02
2023-11-21T04:45:51.851Z,17.03
2023-11-21T04:46:14.600Z,17.05
2023-11-21T04:46:36.467Z,17.06
2023-11-21T04:46:58.201Z,17.08
2023-11-21T04:47:20.842Z,17.10
2023-11-21T04:47:42.649Z,17.07
2023-11-21T04:48:06.549Z,17.11
2023-11-21T04:48:28.171Z,17.09
2023-11-21T04:48:49.768Z,17.09
2023-11-21T04:49:12.057Z,17.10
2023-11-21T04:49:33.806Z,17.10
2023-11-21T04:49:56.493Z,17.04
2023-11-21T04:50:18.548Z,17.10
2023-11-21T04:50:40.222Z,17.09
2023-11-21T04:51:01.876Z,17.09
2023-11-21T04:51:23.524Z,17.08
2023-11-21T04:51:46.150Z,17.06
2023-11-21T04:52:08.879Z,17.09
2023-11-21T04:52:30.540Z,17.10
2023-11-21T04:52:52.254Z,17.10
2023-11-21T04:53:15.505Z,17.11
2023-11-21T04:53:38.130Z,17.10
2023-11-21T04:53:59.848Z,17.09
2023-11-21T04:54:21.549Z,17.11
2023-11-21T04:54:44.654Z,17.09
2023-11-21T04:55:07.441Z,17.12
2023-11-21T04:55:29.205Z,17.14
2023-11-21T04:55:52.101Z,17.15
2023-11-21T04:56:13.863Z,17.13
2023-11-21T04:56:35.599Z,17.13
2023-11-21T04:56:57.512Z,17.12
2023-11-21T04:57:19.936Z,17.12
2023-11-21T04:57:42.952Z,17.14
2023-11-21T04:58:05.438Z,17.17
2023-11-21T04:58:27.185Z,17.17
2023-11-21T04:58:48.978Z,17.15
2023-11-21T04:59:10.734Z,17.16
2023-11-21T04:59:32.550Z,17.17
2023-11-21T04:59:55.414Z,17.16
2023-11-21T05:00:18.037Z,17.16
2023-11-21T05:00:39.871Z,17.07
2023-11-21T05:01:01.846Z,17.17
2023-11-21T05:01:23.869Z,17.16
2023-11-21T05:01:46.595Z,17.17
2023-11-21T05:02:08.519Z,17.13
2023-11-21T05:02:35.453Z,17.11
2023-11-21T05:02:58.308Z,17.15
2023-11-21T05:03:21.704Z,17.17